createdAt,value
2018-03-02T00:00:38.050Z,99609.77
2018-03-02T00:03:04.002Z,99596.44
2018-03-02T00:05:29.955Z,99591.07
2018-03-02T00:07:55.903Z,99592.41
2018-03-02T00:10:21.841Z,99591.23
2018-03-02T00:12:47.829Z,99585.98
2018-03-02T00:15:13.761Z,99573.82
2018-03-02T00:17:39.820Z,99568.22
2018-03-02T00:20:05.791Z,99572.98
2018-03-02T00:22:31.773Z,99570.09
2018-03-02T00:24:57.739Z,99560.31
2018-03-02T00:27:23.694Z,99557.12
2018-03-02T00:29:49.630Z,99548.63
2018-03-02T00:32:15.600Z,99551.59
2018-03-02T00:34:41.551Z,99560.83
2018-03-02T00:37:07.509Z,99550.45
2018-03-02T00:39:33.462Z,99548.31
2018-03-02T00:41:59.434Z,99550.28
2018-03-02T00:44:25.432Z,99546.17
2018-03-02T00:46:51.382Z,99548.42
2018-03-02T00:49:17.331Z,99540.66
2018-03-02T00:51:43.294Z,99541.23
2018-03-02T00:54:09.239Z,99542.56
2018-03-02T00:56:35.201Z,99536.97
2018-03-02T00:59:01.162Z,99536.06
2018-03-02T01:01:27.102Z,99523.17
2018-03-02T01:03:53.089Z,99520.27
2018-03-02T01:06:19.025Z,99518.06
2018-03-02T01:08:44.977Z,99510.00
2018-03-02T01:11:10.944Z,99515.77
2018-03-02T01:13:36.995Z,99504.06
2018-03-02T01:16:02.947Z,99504.00
2018-03-02T01:18:28.902Z,99505.97
2018-03-02T01:20:54.856Z,99503.66
2018-03-02T01:23:20.808Z,99498.50
2018-03-02T01:25:46.870Z,99501.20
2018-03-02T01:28:12.826Z,99495.63
2018-03-02T01:30:38.761Z,99495.78
2018-03-02T01:33:04.702Z,99502.61
2018-03-02T01:35:30.657Z,99501.14
2018-03-02T01:37:56.605Z,99500.88
2018-03-02T01:40:22.650Z,99498.31
2018-03-02T01:42:48.596Z,99498.31
2018-03-02T01:45:14.553Z,99491.49
2018-03-02T01:47:40.510Z,99488.05
2018-03-02T01:50:06.460Z,99482.47
2018-03-02T01:52:32.452Z,99488.38
2018-03-02T01:54:58.371Z,99481.14
2018-03-02T01:57:24.328Z,99479.75
2018-03-02T01:59:50.282Z,99477.03
2018-03-02T02:02:16.234Z,99470.28
2018-03-02T02:04:42.169Z,99474.50
2018-03-02T02:07:08.133Z,99472.59
2018-03-02T02:09:34.094Z,99466.61
2018-03-02T02:12:00.039Z,99468.15
2018-03-02T02:14:25.986Z,99464.56
2018-03-02T02:16:51.922Z,99465.54
2018-03-02T02:19:17.920Z,99453.11
2018-03-02T02:21:43.882Z,99442.92
2018-03-02T02:24:09.833Z,99437.82
2018-03-02T02:26:35.798Z,99439.89
2018-03-02T02:29:01.754Z,99441.52
2018-03-02T02:31:27.714Z,99438.80
2018-03-02T02:33:53.670Z,99435.10
2018-03-02T02:36:19.693Z,99430.09
2018-03-02T02:38:45.650Z,99430.27
2018-03-02T02:41:11.601Z,99424.85
2018-03-02T02:43:37.625Z,99419.25
2018-03-02T02:46:03.573Z,99415.55
2018-03-02T02:48:29.526Z,99412.42
2018-03-02T02:50:55.474Z,99416.39
2018-03-02T02:53:21.449Z,99401.42
2018-03-02T02:55:47.411Z,99413.27
2018-03-02T02:58:13.431Z,99422.78
2018-03-02T03:00:39.394Z,99414.33
2018-03-02T03:03:05.350Z,99415.16
2018-03-02T03:05:31.334Z,99417.61
2018-03-02T03:07:57.293Z,99412.45
2018-03-02T03:10:23.241Z,99410.12
2018-03-02T03:12:49.214Z,99407.69
2018-03-02T03:15:15.160Z,99403.73
2018-03-02T03:17:41.104Z,99407.34
2018-03-02T03:20:07.058Z,99407.02
2018-03-02T03:22:33.010Z,99398.30
2018-03-02T03:24:58.957Z,99401.42
2018-03-02T03:27:24.919Z,99402.08
2018-03-02T03:29:50.863Z,99397.56
2018-03-02T03:32:16.841Z,99397.16
2018-03-02T03:34:42.867Z,99391.15
2018-03-02T03:37:08.853Z,99393.44
2018-03-02T03:39:34.803Z,99387.84
2018-03-02T03:42:00.766Z,99387.49
2018-03-02T03:44:26.730Z,99384.17
2018-03-02T03:46:52.690Z,99381.69
2018-03-02T03:49:18.643Z,99382.95
2018-03-02T03:51:44.585Z,99383.41
2018-03-02T03:54:10.551Z,99378.14
2018-03-02T03:56:36.510Z,99373.44
2018-03-02T03:59:02.453Z,99361.14
2018-03-02T04:01:28.409Z,99359.69
2018-03-02T04:03:54.360Z,99366.41
2018-03-02T04:06:20.306Z,99365.95
2018-03-02T04:08:46.261Z,99358.38
2018-03-02T04:11:12.214Z,99355.95
2018-03-02T04:13:38.157Z,99350.63
2018-03-02T04:16:04.125Z,99345.28
2018-03-02T04:18:30.117Z,99341.67
2018-03-02T04:20:56.073Z,99332.13
2018-03-02T04:23:22.041Z,99334.11
2018-03-02T04:25:47.982Z,99330.48
2018-03-02T04:28:13.933Z,99323.91
2018-03-02T04:30:39.913Z,99320.86
2018-03-02T04:33:05.895Z,99324.56
2018-03-02T04:35:31.834Z,99318.90
2018-03-02T04:37:57.893Z,99320.95
2018-03-02T04:40:23.831Z,99317.53
2018-03-02T04:42:49.786Z,99315.02
2018-03-02T04:45:15.732Z,99316.88
2018-03-02T04:47:41.680Z,99314.48
2018-03-02T04:50:07.650Z,99314.95
2018-03-02T04:52:33.596Z,99307.45
2018-03-02T04:54:59.592Z,99309.58
2018-03-02T04:57:25.546Z,99307.44
2018-03-02T04:59:51.594Z,99307.89
2018-03-02T05:02:17.570Z,99296.75
2018-03-02T05:04:43.516Z,99286.63
2018-03-02T05:07:09.599Z,99290.64
2018-03-02T05:09:35.554Z,99289.48
2018-03-02T05:12:01.516Z,99288.81
2018-03-02T05:14:27.469Z,99285.28
2018-03-02T05:16:53.426Z,99289.58
2018-03-02T05:19:19.400Z,99286.03
2018-03-02T05:21:45.390Z,99287.09
2018-03-02T05:24:11.348Z,99283.77
2018-03-02T05:26:37.290Z,99276.91
2018-03-02T05:29:03.252Z,99283.41
2018-03-02T05:31:29.376Z,99273.03
2018-03-02T05:33:55.309Z,99271.14
2018-03-02T05:36:21.247Z,99266.59
2018-03-02T05:38:47.225Z,99265.39
2018-03-02T05:41:13.173Z,99273.62
2018-03-02T05:43:39.130Z,99277.72
2018-03-02T05:46:05.086Z,99268.52
2018-03-02T05:48:31.035Z,99273.03
2018-03-02T05:50:56.976Z,99268.73
2018-03-02T05:53:23.025Z,99269.99
2018-03-02T05:55:48.986Z,99260.80
2018-03-02T05:58:14.926Z,99258.33
2018-03-02T06:00:40.862Z,99260.78
2018-03-02T06:03:06.801Z,99259.41
2018-03-02T06:05:32.747Z,99255.66
2018-03-02T06:07:58.700Z,99255.55
2018-03-02T06:10:24.642Z,99251.22
2018-03-02T06:12:50.626Z,99249.08
2018-03-02T06:15:16.570Z,99248.44
2018-03-02T06:17:42.538Z,99247.05
2018-03-02T06:20:08.474Z,99243.68
2018-03-02T06:22:34.423Z,99249.74
2018-03-02T06:25:00.362Z,99247.77
2018-03-02T06:27:26.318Z,99247.28
2018-03-02T06:29:52.260Z,99241.47
2018-03-02T06:32:18.234Z,99240.25
2018-03-02T06:34:44.188Z,99244.91
2018-03-02T06:37:10.158Z,99247.75
2018-03-02T06:39:36.109Z,99253.52
2018-03-02T06:42:02.067Z,99244.73
2018-03-02T06:44:28.014Z,99255.25
2018-03-02T06:46:53.951Z,99252.66
2018-03-02T06:49:19.916Z,99251.46
2018-03-02T06:51:45.878Z,99250.62
2018-03-02T06:54:11.941Z,99260.70
2018-03-02T06:56:37.885Z,99257.72
2018-03-02T06:59:03.859Z,99254.80
2018-03-02T07:01:29.818Z,99252.78
2018-03-02T07:03:55.774Z,99245.50
2018-03-02T07:06:21.714Z,99245.72
2018-03-02T07:08:47.741Z,99238.31
2018-03-02T07:11:13.690Z,99229.80
2018-03-02T07:13:39.630Z,99229.25
2018-03-02T07:16:05.599Z,99236.16
2018-03-02T07:18:31.577Z,99229.15
2018-03-02T07:20:57.529Z,99235.41
2018-03-02T07:23:23.483Z,99233.46
2018-03-02T07:25:49.452Z,99237.96
2018-03-02T07:28:15.402Z,99227.84
2018-03-02T07:30:41.446Z,99228.72
2018-03-02T07:33:07.398Z,99229.09
2018-03-02T07:35:33.349Z,99224.13
2018-03-02T07:37:59.390Z,99223.72
2018-03-02T07:40:25.832Z,99228.08
2018-03-02T07:42:51.929Z,99227.16
2018-03-02T07:45:17.888Z,99221.88
2018-03-02T07:47:43.853Z,99221.48
2018-03-02T07:50:09.805Z,99227.41
2018-03-02T07:52:35.799Z,99220.80
2018-03-02T07:55:01.757Z,99213.47
2018-03-02T07:57:27.804Z,99211.09
2018-03-02T07:59:53.711Z,99216.39
2018-03-02T08:02:19.668Z,99212.80
2018-03-02T08:04:45.709Z,99216.24
2018-03-02T08:07:11.737Z,99213.33
2018-03-02T08:09:37.698Z,99213.42
2018-03-02T08:12:03.649Z,99214.91
2018-03-02T08:14:29.614Z,99205.54
2018-03-02T08:16:55.561Z,99206.74
2018-03-02T08:19:21.518Z,99208.65
2018-03-02T08:21:47.511Z,99209.02
2018-03-02T08:24:13.485Z,99202.69
2018-03-02T08:26:39.439Z,99194.65
2018-03-02T08:29:05.423Z,99198.30
2018-03-02T08:31:31.361Z,99201.15
2018-03-02T08:33:57.350Z,99199.57
2018-03-02T08:36:23.325Z,99201.20
2018-03-02T08:38:49.270Z,99201.11
2018-03-02T08:41:15.223Z,99183.84
2018-03-02T08:43:41.190Z,99189.75
2018-03-02T08:46:07.146Z,99193.69
2018-03-02T08:48:33.107Z,99191.66
2018-03-02T08:50:59.098Z,99193.11
2018-03-02T08:53:25.060Z,99185.06
2018-03-02T08:55:51.010Z,99190.39
2018-03-02T08:58:16.968Z,99186.77
2018-03-02T09:00:43.011Z,99191.73
2018-03-02T09:03:08.955Z,99186.61
2018-03-02T09:05:34.966Z,99191.48
2018-03-02T09:08:00.867Z,99184.35
2018-03-02T09:10:26.812Z,99189.65
2018-03-02T09:12:52.780Z,99195.93
2018-03-02T09:15:18.750Z,99189.93
2018-03-02T09:17:44.706Z,99192.12
2018-03-02T09:20:10.685Z,99196.73
2018-03-02T09:22:36.620Z,99196.34
2018-03-02T09:25:02.601Z,99201.14
2018-03-02T09:27:28.547Z,99195.83
2018-03-02T09:29:54.498Z,99189.94
2018-03-02T09:32:20.459Z,99199.38
2018-03-02T09:34:46.398Z,99191.77
2018-03-02T09:37:12.376Z,99197.03
2018-03-02T09:39:38.319Z,99197.92
2018-03-02T09:42:04.281Z,99199.77
2018-03-02T09:44:30.231Z,99195.73
2018-03-02T09:46:56.182Z,99198.63
2018-03-02T09:49:22.144Z,99200.23
2018-03-02T09:51:48.137Z,99204.14
2018-03-02T09:54:14.085Z,99201.88
2018-03-02T09:56:40.043Z,99206.05
2018-03-02T09:59:05.984Z,99203.08
2018-03-02T10:01:31.929Z,99203.10
2018-03-02T10:03:57.934Z,99206.95
2018-03-02T10:06:23.930Z,99202.00
2018-03-02T10:08:49.903Z,99202.18
2018-03-02T10:11:15.860Z,99203.22
2018-03-02T10:13:41.822Z,99204.48
2018-03-02T10:16:07.765Z,99201.62
2018-03-02T10:18:33.745Z,99203.00
2018-03-02T10:20:59.685Z,99203.08
2018-03-02T10:23:25.667Z,99204.72
2018-03-02T10:25:51.610Z,99206.77
2018-03-02T10:28:17.563Z,99206.89
2018-03-02T10:30:43.509Z,99213.06
2018-03-02T10:33:09.451Z,99207.99
2018-03-02T10:35:35.498Z,99208.59
2018-03-02T10:38:01.493Z,99205.84
2018-03-02T10:40:27.453Z,99214.72
2018-03-02T10:42:53.413Z,99214.05
2018-03-02T10:45:19.372Z,99212.97
2018-03-02T10:47:45.329Z,99215.63
2018-03-02T10:50:11.305Z,99212.81
2018-03-02T10:52:37.263Z,99210.64
2018-03-02T10:55:03.247Z,99213.00
2018-03-02T10:57:29.239Z,99216.70
2018-03-02T10:59:55.199Z,99215.02
2018-03-02T11:02:21.165Z,99224.44
2018-03-02T11:04:47.110Z,99222.84
2018-03-02T11:07:13.047Z,99217.21
2018-03-02T11:09:39.110Z,99227.47
2018-03-02T11:12:05.050Z,99225.28
2018-03-02T11:14:31.009Z,99221.42
2018-03-02T11:16:56.957Z,99214.67
2018-03-02T11:19:22.917Z,99207.03
2018-03-02T11:21:48.886Z,99191.27
2018-03-02T11:24:14.851Z,99192.81
2018-03-02T11:26:40.825Z,99194.91
2018-03-02T11:29:06.778Z,99201.09
2018-03-02T11:31:32.750Z,99202.41
2018-03-02T11:33:58.711Z,99199.81
2018-03-02T11:36:24.706Z,99196.17
2018-03-02T11:38:50.679Z,99191.38
2018-03-02T11:41:16.616Z,99192.69
2018-03-02T11:43:42.605Z,99195.09
2018-03-02T11:46:08.567Z,99197.22
2018-03-02T11:48:34.572Z,99181.27
2018-03-02T11:51:00.522Z,99184.81
2018-03-02T11:53:26.478Z,99180.45
2018-03-02T11:55:52.454Z,99183.06
2018-03-02T11:58:18.418Z,99184.88
2018-03-02T12:00:44.382Z,99181.61
2018-03-02T12:03:10.366Z,99176.09
2018-03-02T12:05:36.311Z,99184.68
2018-03-02T12:08:02.259Z,99177.79
2018-03-02T12:10:28.305Z,99186.67
2018-03-02T12:12:54.291Z,99194.04
2018-03-02T12:15:20.246Z,99191.17
2018-03-02T12:17:46.241Z,99183.63
2018-03-02T12:20:12.201Z,99179.69
2018-03-02T12:22:38.185Z,99185.42
2018-03-02T12:25:04.142Z,99189.69
2018-03-02T12:27:30.106Z,99186.00
2018-03-02T12:29:56.070Z,99187.83
2018-03-02T12:32:22.082Z,99193.50
2018-03-02T12:34:48.030Z,99192.86
2018-03-02T12:37:13.969Z,99198.39
2018-03-02T12:39:40.057Z,99200.86
2018-03-02T12:42:06.073Z,99194.81
2018-03-02T12:44:32.063Z,99192.28
2018-03-02T12:46:57.995Z,99194.58
2018-03-02T12:49:23.957Z,99196.78
2018-03-02T12:51:49.919Z,99195.77
2018-03-02T12:54:15.863Z,99194.17
2018-03-02T12:56:41.829Z,99194.08
2018-03-02T12:59:07.773Z,99187.71
2018-03-02T13:01:33.715Z,99188.53
2018-03-02T13:03:59.662Z,99194.65
2018-03-02T13:06:25.617Z,99192.31
2018-03-02T13:08:51.670Z,99187.95
2018-03-02T13:11:17.622Z,99187.18
2018-03-02T13:13:43.591Z,99184.30
2018-03-02T13:16:09.542Z,99187.99
2018-03-02T13:18:35.521Z,99190.05
2018-03-02T13:21:01.506Z,99178.20
2018-03-02T13:23:27.527Z,99184.00
2018-03-02T13:25:53.483Z,99181.73
2018-03-02T13:28:19.782Z,99186.37
2018-03-02T13:30:47.866Z,99181.50
2018-03-02T13:33:13.799Z,99178.13
2018-03-02T13:35:39.746Z,99170.86
2018-03-02T13:38:05.713Z,99176.44
2018-03-02T13:40:31.925Z,99172.86
2018-03-02T13:42:57.871Z,99166.27
2018-03-02T13:45:23.834Z,99165.59
2018-03-02T13:47:49.783Z,99157.28
2018-03-02T13:50:15.786Z,99155.92
2018-03-02T13:52:41.746Z,99149.09
2018-03-02T13:55:07.686Z,99140.27
2018-03-02T13:57:33.687Z,99143.99
2018-03-02T13:59:59.655Z,99141.39
2018-03-02T14:02:25.591Z,99137.34
2018-03-02T14:04:51.590Z,99134.36
2018-03-02T14:07:17.613Z,99137.64
2018-03-02T14:09:43.561Z,99129.06
2018-03-02T14:12:09.527Z,99128.48
2018-03-02T14:14:35.498Z,99123.55
2018-03-02T14:17:01.455Z,99131.02
2018-03-02T14:19:27.405Z,99122.91
2018-03-02T14:21:53.356Z,99121.66
2018-03-02T14:24:19.303Z,99123.76
2018-03-02T14:26:45.251Z,99111.66
2018-03-02T14:29:11.314Z,99111.30
2018-03-02T14:31:37.257Z,99118.79
2018-03-02T14:34:03.191Z,99116.02
2018-03-02T14:36:29.147Z,99115.20
2018-03-02T14:38:55.095Z,99124.53
2018-03-02T14:41:21.046Z,99124.83
2018-03-02T14:43:47.010Z,99132.33
2018-03-02T14:46:12.967Z,99123.89
2018-03-02T14:48:38.899Z,99117.97
2018-03-02T14:51:04.877Z,99120.65
2018-03-02T14:53:30.818Z,99123.92
2018-03-02T14:55:56.769Z,99123.69
2018-03-02T14:58:22.731Z,99120.72
2018-03-02T15:00:48.694Z,99117.34
2018-03-02T15:03:14.703Z,99113.62
2018-03-02T15:05:40.662Z,99113.38
2018-03-02T15:08:06.611Z,99113.27
2018-03-02T15:10:32.570Z,99115.08
2018-03-02T15:12:58.527Z,99114.97
2018-03-02T15:15:24.481Z,99117.87
2018-03-02T15:17:50.499Z,99127.27
2018-03-02T15:20:16.410Z,99129.88
2018-03-02T15:22:42.386Z,99139.77
2018-03-02T15:25:08.338Z,99136.42
2018-03-02T15:27:34.282Z,99139.09
2018-03-02T15:30:00.256Z,99140.38
2018-03-02T15:32:26.225Z,99145.28
2018-03-02T15:34:52.189Z,99141.59
2018-03-02T15:37:18.250Z,99150.89
2018-03-02T15:39:44.240Z,99145.81
2018-03-02T15:42:10.138Z,99147.28
2018-03-02T15:44:36.115Z,99153.02
2018-03-02T15:47:02.076Z,99157.24
2018-03-02T15:49:28.070Z,99161.30
2018-03-02T15:51:54.018Z,99162.41
2018-03-02T15:54:19.995Z,99168.86
2018-03-02T15:56:45.937Z,99168.09
2018-03-02T15:59:11.895Z,99172.01
2018-03-02T16:01:37.836Z,99170.05
2018-03-02T16:04:03.882Z,99171.73
2018-03-02T16:06:29.894Z,99172.64
2018-03-02T16:08:55.798Z,99176.36
2018-03-02T16:11:21.738Z,99173.72
2018-03-02T16:13:47.733Z,99173.89
2018-03-02T16:16:13.684Z,99177.97
2018-03-02T16:18:39.655Z,99186.38
2018-03-02T16:21:05.643Z,99192.26
2018-03-02T16:23:31.582Z,99193.00
2018-03-02T16:25:57.546Z,99200.78
2018-03-02T16:28:23.496Z,99202.20
2018-03-02T16:30:49.474Z,99200.90
2018-03-02T16:33:15.426Z,99205.25
2018-03-02T16:35:41.377Z,99206.09
2018-03-02T16:38:07.329Z,99208.73
2018-03-02T16:40:33.277Z,99210.05
2018-03-02T16:42:59.234Z,99215.26
2018-03-02T16:45:25.199Z,99214.48
2018-03-02T16:47:51.164Z,99224.61
2018-03-02T16:50:17.105Z,99219.62
2018-03-02T16:52:43.054Z,99219.59
2018-03-02T16:55:09.008Z,99219.33
2018-03-02T16:57:34.978Z,99221.73
2018-03-02T17:00:00.918Z,99224.94
2018-03-02T17:02:26.877Z,99230.74
2018-03-02T17:04:52.817Z,99226.30
2018-03-02T17:07:18.797Z,99231.55
2018-03-02T17:09:44.738Z,99233.61
2018-03-02T17:12:10.786Z,99233.44
2018-03-02T17:14:36.718Z,99236.88
2018-03-02T17:17:02.691Z,99241.75
2018-03-02T17:19:28.770Z,99244.99
2018-03-02T17:21:54.719Z,99249.10
2018-03-02T17:24:20.726Z,99250.18
2018-03-02T17:26:46.674Z,99244.60
2018-03-02T17:29:12.658Z,99260.44
2018-03-02T17:31:38.630Z,99264.75
2018-03-02T17:34:04.606Z,99270.06
2018-03-02T17:36:30.590Z,99273.59
2018-03-02T17:38:56.574Z,99269.62
2018-03-02T17:41:22.542Z,99271.77
2018-03-02T17:43:48.486Z,99264.88
2018-03-02T17:46:14.439Z,99269.28
2018-03-02T17:48:40.389Z,99270.19
2018-03-02T17:51:06.369Z,99276.92
2018-03-02T17:53:32.306Z,99282.28
2018-03-02T17:55:58.248Z,99283.05
2018-03-02T17:58:24.210Z,99288.88
2018-03-02T18:00:51.239Z,99285.77
2018-03-02T18:03:17.171Z,99291.39
2018-03-02T18:05:43.123Z,99287.56
2018-03-02T18:08:09.094Z,99291.10
2018-03-02T18:10:35.046Z,99290.36
2018-03-02T18:13:01.019Z,99296.06
2018-03-02T18:15:26.978Z,99292.54
2018-03-02T18:17:52.958Z,99307.27
2018-03-02T18:20:18.900Z,99303.47
2018-03-02T18:22:44.859Z,99299.22
2018-03-02T18:25:10.805Z,99301.21
2018-03-02T18:27:36.778Z,99310.72
2018-03-02T18:30:02.727Z,99304.06
2018-03-02T18:32:28.699Z,99312.73
2018-03-02T18:34:54.676Z,99313.20
2018-03-02T18:37:20.643Z,99308.53
2018-03-02T18:39:46.590Z,99306.11
2018-03-02T18:42:12.536Z,99308.08
2018-03-02T18:44:38.485Z,99310.27
2018-03-02T18:47:04.457Z,99312.78
2018-03-02T18:49:30.399Z,99314.26
2018-03-02T18:51:56.356Z,99308.98
2018-03-02T18:54:22.306Z,99314.42
2018-03-02T18:56:48.259Z,99316.77
2018-03-02T18:59:14.228Z,99317.23
2018-03-02T19:01:40.178Z,99317.49
2018-03-02T19:04:06.138Z,99325.67
2018-03-02T19:06:32.142Z,99328.36
2018-03-02T19:08:58.079Z,99326.56
2018-03-02T19:11:24.046Z,99328.36
2018-03-02T19:13:50.098Z,99336.09
2018-03-02T19:16:16.092Z,99329.67
2018-03-02T19:18:42.059Z,99331.45
2018-03-02T19:21:08.023Z,99331.78
2018-03-02T19:23:33.994Z,99338.50
2018-03-02T19:25:59.945Z,99327.02
2018-03-02T19:28:26.003Z,99327.31
2018-03-02T19:30:51.965Z,99323.58
2018-03-02T19:33:17.938Z,99330.44
2018-03-02T19:35:43.986Z,99324.39
2018-03-02T19:38:10.298Z,99326.47
2018-03-02T19:40:36.340Z,99327.10
2018-03-02T19:43:02.512Z,99328.39
2018-03-02T19:45:28.698Z,99338.03
2018-03-02T19:47:54.706Z,99342.10
2018-03-02T19:50:20.903Z,99343.13
2018-03-02T19:52:46.917Z,99337.72
2018-03-02T19:55:13.106Z,99337.46
2018-03-02T19:57:39.169Z,99336.81
2018-03-02T20:00:05.122Z,99339.91
2018-03-02T20:02:31.354Z,99338.47
2018-03-02T20:04:57.383Z,99335.81
2018-03-02T20:07:23.646Z,99339.56
2018-03-02T20:09:49.745Z,99339.01
2018-03-02T20:12:15.721Z,99340.03
2018-03-02T20:14:41.690Z,99346.98
2018-03-02T20:17:07.938Z,99344.70
2018-03-02T20:19:34.186Z,99348.60
2018-03-02T20:22:01.441Z,99344.42
2018-03-02T20:24:27.520Z,99351.20
2018-03-02T20:26:53.688Z,99359.02
2018-03-02T20:29:19.675Z,99360.69
2018-03-02T20:31:45.877Z,99360.34
2018-03-02T20:34:11.858Z,99353.28
2018-03-02T20:36:37.798Z,99359.43
2018-03-02T20:39:03.780Z,99366.81
2018-03-02T20:41:29.726Z,99362.60
2018-03-02T20:43:55.723Z,99359.56
2018-03-02T20:46:21.702Z,99354.65
2018-03-02T20:48:47.661Z,99362.63
2018-03-02T20:51:13.692Z,99361.07
2018-03-02T20:53:39.638Z,99358.25
2018-03-02T20:56:05.601Z,99354.00
2018-03-02T20:58:31.554Z,99356.30
2018-03-02T21:00:57.778Z,99355.47
2018-03-02T21:03:23.737Z,99352.59
2018-03-02T21:05:49.686Z,99358.70
2018-03-02T21:08:15.654Z,99356.52
2018-03-02T21:10:41.612Z,99356.84
2018-03-02T21:13:07.554Z,99357.25
2018-03-02T21:15:33.508Z,99356.95
2018-03-02T21:17:59.464Z,99359.33
2018-03-02T21:20:25.425Z,99357.62
2018-03-02T21:22:51.396Z,99350.73
2018-03-02T21:25:17.366Z,99351.27
2018-03-02T21:27:43.462Z,99352.17
2018-03-02T21:30:09.417Z,99353.59
2018-03-02T21:32:35.372Z,99356.14
2018-03-02T21:35:01.330Z,99357.50
2018-03-02T21:37:27.281Z,99349.18
2018-03-02T21:42:25.022Z,99353.42
2018-03-02T21:44:50.975Z,99347.62
2018-03-02T21:47:16.959Z,99346.16
2018-03-02T21:49:42.937Z,99333.14
2018-03-02T21:52:08.934Z,99336.08
2018-03-02T21:54:34.922Z,99341.10
2018-03-02T21:57:00.909Z,99344.97
2018-03-02T21:59:26.894Z,99344.73
2018-03-02T22:01:52.858Z,99345.05
2018-03-02T22:04:18.809Z,99341.02
2018-03-02T22:06:44.770Z,99343.14
2018-03-02T22:09:10.718Z,99337.77
2018-03-02T22:11:36.686Z,99338.27
2018-03-02T22:14:02.666Z,99336.52
2018-03-02T22:16:28.614Z,99334.42
2018-03-02T22:18:54.562Z,99333.22
2018-03-02T22:21:20.529Z,99327.65
2018-03-02T22:23:46.478Z,99326.33
2018-03-02T22:26:12.474Z,99329.52
2018-03-02T22:28:38.429Z,99324.11
2018-03-02T22:31:04.434Z,99325.52
2018-03-02T22:33:30.386Z,99323.45
2018-03-02T22:35:56.332Z,99318.05
2018-03-02T22:38:22.277Z,99321.20
2018-03-02T22:40:48.230Z,99318.89
2018-03-02T22:43:14.210Z,99320.11
2018-03-02T22:45:40.270Z,99327.18
2018-03-02T22:48:06.233Z,99321.83
2018-03-02T22:50:32.187Z,99316.97
2018-03-02T22:52:58.270Z,99314.84
2018-03-02T22:55:24.217Z,99314.95
2018-03-02T22:57:50.159Z,99302.52
2018-03-02T23:00:16.152Z,99303.10
2018-03-02T23:02:42.097Z,99308.59
2018-03-02T23:05:08.031Z,99311.30
2018-03-02T23:07:34.051Z,99314.19
2018-03-02T23:09:59.997Z,99316.98
2018-03-02T23:12:25.939Z,99310.00
2018-03-02T23:14:51.977Z,99305.36
2018-03-02T23:17:18.037Z,99306.05
2018-03-02T23:19:44.000Z,99312.50
2018-03-02T23:22:09.953Z,99311.19
2018-03-02T23:24:35.944Z,99310.02
2018-03-02T23:27:01.878Z,99307.23
2018-03-02T23:29:27.852Z,99313.63
2018-03-02T23:31:53.795Z,99307.13
2018-03-02T23:34:19.726Z,99297.92
2018-03-02T23:36:45.720Z,99301.10
2018-03-02T23:39:11.657Z,99302.08
2018-03-02T23:41:37.627Z,99300.91
2018-03-02T23:44:03.555Z,99294.58
2018-03-02T23:46:29.501Z,99301.77
2018-03-02T23:48:55.484Z,99294.90
2018-03-02T23:51:21.425Z,99292.66
2018-03-02T23:53:47.370Z,99292.81
2018-03-02T23:56:13.318Z,99296.19
2018-03-02T23:58:39.261Z,99294.17
